SIK0965 EGPE-EGJB
Flight info
| Callsign | SIK0965 |
|---|---|
| Flight time | 1h 20m |
| Altitude | 41000 |
| Route | NESDI DCT GOW L612 HON N859 CPT Y321 PEPIS Q41 SAM N63 LELNA |
| Aircraft | C750/M-SBDE3FGHRWXY/S |
Departure
| Time | 2026-04-25 15:53 |
|---|---|
| Airport | Inverness Airport (EGPE) |
Arrival
| Time | 2026-04-25 17:14 |
|---|---|
| Airport | Guernsey Airport (EGJB) |
| Time | Latitude | Longitude | Altitude | Speed | Heading |
|---|---|---|---|---|---|
| 2026-04-25 15:42 | 57.54024 | -4.06245 | 33 ft | 0 kts | 276° |
| 2026-04-25 15:43 | 57.54023 | -4.06221 | 33 ft | 4 kts | 270° |
| 2026-04-25 15:43 | 57.54026 | -4.06174 | 33 ft | 4 kts | 242° |
| 2026-04-25 15:44 | 57.54041 | -4.06146 | 33 ft | 2 kts | 186° |
| 2026-04-25 15:44 | 57.54048 | -4.06145 | 33 ft | 0 kts | 185° |
| 2026-04-25 15:46 | 57.54020 | -4.06149 | 33 ft | 7 kts | 185° |
| 2026-04-25 15:46 | 57.53953 | -4.06159 | 33 ft | 11 kts | 184° |
| 2026-04-25 15:47 | 57.53871 | -4.06171 | 33 ft | 13 kts | 185° |
| 2026-04-25 15:47 | 57.53791 | -4.06171 | 33 ft | 10 kts | 159° |
| 2026-04-25 15:47 | 57.53755 | -4.06088 | 34 ft | 0 kts | 122° |
| 2026-04-25 15:48 | 57.53752 | -4.06081 | 35 ft | 1 kts | 122° |
| 2026-04-25 15:48 | 57.53747 | -4.06067 | 35 ft | 3 kts | 122° |
| 2026-04-25 15:48 | 57.53726 | -4.06006 | 36 ft | 10 kts | 122° |
| 2026-04-25 15:48 | 57.53739 | -4.05867 | 36 ft | 12 kts | 50° |
| 2026-04-25 15:49 | 57.53757 | -4.05826 | 36 ft | 0 kts | 51° |
| 2026-04-25 15:53 | 57.53767 | -4.05804 | 36 ft | 14 kts | 49° |
| 2026-04-25 15:53 | 57.54063 | -4.05160 | 33 ft | 114 kts | 49° |
| 2026-04-25 15:53 | 57.54633 | -4.03910 | 487 ft | 124 kts | 50° |
| 2026-04-25 15:53 | 57.55158 | -4.02632 | 1149 ft | 130 kts | 52° |
| 2026-04-25 15:54 | 57.55653 | -4.01025 | 1348 ft | 165 kts | 81° |
| 2026-04-25 15:54 | 57.55210 | -3.98872 | 1600 ft | 205 kts | 128° |
| 2026-04-25 15:54 | 57.53772 | -3.97728 | 1905 ft | 253 kts | 172° |
| 2026-04-25 15:54 | 57.52049 | -3.98618 | 2871 ft | 258 kts | 205° |
| 2026-04-25 15:55 | 57.50522 | -4.00211 | 4242 ft | 247 kts | 210° |
| 2026-04-25 15:55 | 57.48996 | -4.01677 | 5391 ft | 249 kts | 208° |
| 2026-04-25 15:55 | 57.47391 | -4.03084 | 6244 ft | 259 kts | 207° |
| 2026-04-25 15:55 | 57.45719 | -4.04493 | 7140 ft | 268 kts | 208° |
| 2026-04-25 15:56 | 57.43998 | -4.05924 | 8116 ft | 274 kts | 208° |
| 2026-04-25 15:56 | 57.42243 | -4.07379 | 9140 ft | 280 kts | 207° |
| 2026-04-25 15:56 | 57.40402 | -4.08696 | 10058 ft | 288 kts | 201° |
| 2026-04-25 15:56 | 57.38371 | -4.09505 | 10466 ft | 313 kts | 191° |
| 2026-04-25 15:57 | 57.36095 | -4.09839 | 10605 ft | 342 kts | 186° |
| 2026-04-25 15:57 | 57.33643 | -4.10113 | 10960 ft | 357 kts | 187° |
| 2026-04-25 15:57 | 57.31178 | -4.10630 | 11753 ft | 358 kts | 190° |
| 2026-04-25 15:57 | 57.28702 | -4.11259 | 12481 ft | 361 kts | 190° |
| 2026-04-25 15:58 | 57.26192 | -4.11799 | 13187 ft | 365 kts | 188° |
| 2026-04-25 15:58 | 57.23651 | -4.12274 | 13896 ft | 369 kts | 188° |
| 2026-04-25 15:58 | 57.21121 | -4.12790 | 14523 ft | 372 kts | 189° |
| 2026-04-25 15:58 | 57.18543 | -4.13353 | 15169 ft | 374 kts | 189° |
| 2026-04-25 15:59 | 57.15946 | -4.13903 | 15839 ft | 377 kts | 188° |
| 2026-04-25 15:59 | 57.13330 | -4.14435 | 16555 ft | 378 kts | 188° |
| 2026-04-25 15:59 | 57.10730 | -4.15072 | 17328 ft | 378 kts | 190° |
| 2026-04-25 15:59 | 57.08113 | -4.15742 | 18039 ft | 381 kts | 188° |
| 2026-04-25 16:00 | 57.05471 | -4.16315 | 18745 ft | 384 kts | 188° |
| 2026-04-25 16:00 | 57.04575 | -4.16518 | 18960 ft | 385 kts | 188° |
| 2026-04-25 16:00 | 57.00159 | -4.17636 | 20140 ft | 387 kts | 188° |
| 2026-04-25 16:00 | 56.97476 | -4.18310 | 20784 ft | 391 kts | 188° |
| 2026-04-25 16:01 | 56.94766 | -4.18955 | 21430 ft | 395 kts | 187° |
| 2026-04-25 16:01 | 56.92033 | -4.19613 | 22059 ft | 398 kts | 187° |
| 2026-04-25 16:01 | 56.89273 | -4.20295 | 22691 ft | 402 kts | 187° |
| 2026-04-25 16:01 | 56.86491 | -4.20980 | 23322 ft | 405 kts | 187° |
| 2026-04-25 16:02 | 56.83685 | -4.21658 | 23908 ft | 409 kts | 187° |
| 2026-04-25 16:02 | 56.80855 | -4.22341 | 24433 ft | 412 kts | 187° |
| 2026-04-25 16:02 | 56.78003 | -4.23036 | 24960 ft | 415 kts | 187° |
| 2026-04-25 16:02 | 56.75135 | -4.23734 | 25526 ft | 416 kts | 187° |
| 2026-04-25 16:03 | 56.72261 | -4.24428 | 26077 ft | 419 kts | 187° |
| 2026-04-25 16:03 | 56.69356 | -4.25128 | 26572 ft | 422 kts | 187° |
| 2026-04-25 16:03 | 56.66432 | -4.25833 | 27088 ft | 425 kts | 187° |
| 2026-04-25 16:03 | 56.63488 | -4.26543 | 27607 ft | 428 kts | 187° |
| 2026-04-25 16:04 | 56.60522 | -4.27256 | 28116 ft | 432 kts | 187° |
| 2026-04-25 16:04 | 56.57530 | -4.27974 | 28630 ft | 435 kts | 187° |
| 2026-04-25 16:04 | 56.54516 | -4.28697 | 29134 ft | 438 kts | 187° |
| 2026-04-25 16:04 | 56.51481 | -4.29424 | 29626 ft | 442 kts | 187° |
| 2026-04-25 16:05 | 56.48424 | -4.30153 | 30181 ft | 444 kts | 186° |
| 2026-04-25 16:05 | 56.45357 | -4.30884 | 30651 ft | 446 kts | 186° |
| 2026-04-25 16:05 | 56.39164 | -4.32361 | 31518 ft | 450 kts | 186° |
| 2026-04-25 16:06 | 56.36110 | -4.33086 | 32106 ft | 448 kts | 186° |
| 2026-04-25 16:06 | 56.33017 | -4.33818 | 32676 ft | 448 kts | 186° |
| 2026-04-25 16:06 | 56.29927 | -4.34550 | 33235 ft | 448 kts | 186° |
| 2026-04-25 16:06 | 56.26839 | -4.35280 | 33803 ft | 448 kts | 185° |
| 2026-04-25 16:07 | 56.23753 | -4.36007 | 34356 ft | 447 kts | 185° |
| 2026-04-25 16:07 | 56.21669 | -4.36496 | 34705 ft | 446 kts | 186° |
| 2026-04-25 16:07 | 56.17603 | -4.37453 | 35443 ft | 444 kts | 186° |
| 2026-04-25 16:07 | 56.14544 | -4.38171 | 35962 ft | 443 kts | 186° |
| 2026-04-25 16:08 | 56.11493 | -4.38885 | 36482 ft | 442 kts | 186° |
| 2026-04-25 16:08 | 56.08446 | -4.39598 | 37001 ft | 441 kts | 186° |
| 2026-04-25 16:08 | 56.05405 | -4.40309 | 37541 ft | 440 kts | 187° |
| 2026-04-25 16:08 | 56.02376 | -4.41015 | 38068 ft | 439 kts | 187° |
| 2026-04-25 16:09 | 55.99351 | -4.41719 | 38581 ft | 438 kts | 187° |
| 2026-04-25 16:09 | 55.96338 | -4.42419 | 39042 ft | 435 kts | 187° |
| 2026-04-25 16:09 | 55.93325 | -4.43119 | 39202 ft | 441 kts | 187° |
| 2026-04-25 16:10 | 55.87075 | -4.43042 | 39203 ft | 461 kts | 171° |
| 2026-04-25 16:10 | 55.80922 | -4.39215 | 39211 ft | 480 kts | 153° |
| 2026-04-25 16:11 | 55.75145 | -4.32889 | 39217 ft | 494 kts | 148° |
| 2026-04-25 16:11 | 55.69185 | -4.26747 | 39212 ft | 499 kts | 154° |
| 2026-04-25 16:12 | 55.63027 | -4.20964 | 39209 ft | 502 kts | 150° |
| 2026-04-25 16:12 | 55.56967 | -4.14818 | 39205 ft | 502 kts | 153° |
| 2026-04-25 16:13 | 55.50812 | -4.08972 | 39194 ft | 503 kts | 152° |
| 2026-04-25 16:13 | 55.44712 | -4.02931 | 39185 ft | 503 kts | 152° |
| 2026-04-25 16:14 | 55.38596 | -3.97082 | 39183 ft | 504 kts | 152° |
| 2026-04-25 16:14 | 55.32459 | -3.91113 | 39183 ft | 504 kts | 152° |
| 2026-04-25 16:15 | 55.26304 | -3.85221 | 39185 ft | 504 kts | 152° |
| 2026-04-25 16:15 | 55.20150 | -3.79309 | 39186 ft | 504 kts | 152° |
| 2026-04-25 16:16 | 55.13984 | -3.73426 | 39182 ft | 505 kts | 153° |
| 2026-04-25 16:16 | 55.07812 | -3.67554 | 39192 ft | 505 kts | 153° |
| 2026-04-25 16:17 | 55.01642 | -3.61702 | 39195 ft | 505 kts | 153° |
| 2026-04-25 16:17 | 54.95464 | -3.55868 | 39187 ft | 505 kts | 153° |
| 2026-04-25 16:18 | 54.89292 | -3.50056 | 39192 ft | 504 kts | 153° |
| 2026-04-25 16:18 | 54.83119 | -3.44266 | 39192 ft | 504 kts | 153° |
| 2026-04-25 16:19 | 54.76944 | -3.38493 | 39190 ft | 504 kts | 153° |
| 2026-04-25 16:19 | 54.70719 | -3.32902 | 39198 ft | 503 kts | 157° |
| 2026-04-25 16:20 | 54.61044 | -3.25721 | 39197 ft | 505 kts | 157° |
| 2026-04-25 16:21 | 54.51386 | -3.18467 | 39192 ft | 505 kts | 158° |
| 2026-04-25 16:21 | 54.44937 | -3.13668 | 39184 ft | 505 kts | 158° |
| 2026-04-25 16:22 | 54.38478 | -3.08874 | 39197 ft | 506 kts | 158° |
| 2026-04-25 16:22 | 54.32015 | -3.04106 | 39192 ft | 506 kts | 158° |
| 2026-04-25 16:23 | 54.25667 | -2.98963 | 39200 ft | 503 kts | 158° |
| 2026-04-25 16:23 | 54.19096 | -2.94740 | 39203 ft | 507 kts | 160° |
| 2026-04-25 16:24 | 54.12696 | -2.89876 | 39207 ft | 507 kts | 156° |
| 2026-04-25 16:24 | 54.06187 | -2.85192 | 39210 ft | 508 kts | 159° |
| 2026-04-25 16:25 | 53.99677 | -2.80463 | 39210 ft | 509 kts | 157° |
| 2026-04-25 16:25 | 53.93166 | -2.75718 | 39208 ft | 510 kts | 159° |
| 2026-04-25 16:26 | 53.86630 | -2.71037 | 39202 ft | 510 kts | 158° |
| 2026-04-25 16:26 | 53.80106 | -2.66313 | 39199 ft | 510 kts | 158° |
| 2026-04-25 16:27 | 53.73568 | -2.61657 | 39200 ft | 510 kts | 158° |
| 2026-04-25 16:27 | 53.67030 | -2.56965 | 39188 ft | 511 kts | 158° |
| 2026-04-25 16:28 | 53.60476 | -2.52315 | 39190 ft | 511 kts | 158° |
| 2026-04-25 16:28 | 53.53922 | -2.47656 | 39186 ft | 511 kts | 158° |
| 2026-04-25 16:29 | 53.47361 | -2.43022 | 39185 ft | 511 kts | 159° |
| 2026-04-25 16:29 | 53.40806 | -2.38401 | 39179 ft | 511 kts | 159° |
| 2026-04-25 16:30 | 53.35356 | -2.34572 | 39178 ft | 511 kts | 159° |
| 2026-04-25 16:30 | 53.27685 | -2.29203 | 39178 ft | 511 kts | 159° |
| 2026-04-25 16:31 | 53.21119 | -2.24622 | 39179 ft | 512 kts | 159° |
| 2026-04-25 16:31 | 53.14543 | -2.20050 | 39181 ft | 512 kts | 159° |
| 2026-04-25 16:32 | 53.07970 | -2.15495 | 39183 ft | 512 kts | 159° |
| 2026-04-25 16:32 | 53.01393 | -2.10953 | 39188 ft | 512 kts | 159° |
| 2026-04-25 16:33 | 52.94811 | -2.06423 | 39195 ft | 513 kts | 159° |
| 2026-04-25 16:33 | 52.88220 | -2.01900 | 39189 ft | 513 kts | 159° |
| 2026-04-25 16:34 | 52.81620 | -1.97388 | 39191 ft | 513 kts | 159° |
| 2026-04-25 16:34 | 52.76135 | -1.93648 | 39191 ft | 513 kts | 159° |
| 2026-04-25 16:35 | 52.68451 | -1.88427 | 39192 ft | 514 kts | 159° |
| 2026-04-25 16:35 | 52.61832 | -1.83944 | 39180 ft | 514 kts | 159° |
| 2026-04-25 16:36 | 52.55212 | -1.79477 | 39178 ft | 514 kts | 159° |
| 2026-04-25 16:36 | 52.49662 | -1.75743 | 39177 ft | 515 kts | 159° |
| 2026-04-25 16:37 | 52.43031 | -1.71295 | 39182 ft | 515 kts | 159° |
| 2026-04-25 16:37 | 52.36397 | -1.66861 | 39181 ft | 515 kts | 159° |
| 2026-04-25 16:38 | 52.29609 | -1.63179 | 39177 ft | 514 kts | 164° |
| 2026-04-25 16:38 | 52.22828 | -1.59693 | 39201 ft | 515 kts | 163° |
| 2026-04-25 16:39 | 52.16011 | -1.56103 | 39205 ft | 515 kts | 164° |
| 2026-04-25 16:39 | 52.09178 | -1.52600 | 39199 ft | 515 kts | 164° |
| 2026-04-25 16:40 | 52.02356 | -1.49049 | 39174 ft | 515 kts | 164° |
| 2026-04-25 16:40 | 51.95515 | -1.45547 | 39175 ft | 516 kts | 164° |
| 2026-04-25 16:41 | 51.88673 | -1.42024 | 39175 ft | 516 kts | 164° |
| 2026-04-25 16:41 | 51.78409 | -1.36784 | 39184 ft | 516 kts | 164° |
| 2026-04-25 16:42 | 51.71557 | -1.33293 | 39181 ft | 516 kts | 164° |
| 2026-04-25 16:42 | 51.64707 | -1.29818 | 39184 ft | 516 kts | 164° |
| 2026-04-25 16:43 | 51.57853 | -1.26351 | 39182 ft | 516 kts | 164° |
| 2026-04-25 16:43 | 51.50980 | -1.23014 | 39166 ft | 515 kts | 169° |
| 2026-04-25 16:44 | 51.43896 | -1.22093 | 39175 ft | 510 kts | 184° |
| 2026-04-25 16:44 | 51.36834 | -1.23083 | 39190 ft | 510 kts | 187° |
| 2026-04-25 16:45 | 51.29729 | -1.23503 | 39183 ft | 511 kts | 183° |
| 2026-04-25 16:45 | 51.22640 | -1.24141 | 39186 ft | 510 kts | 186° |
| 2026-04-25 16:46 | 51.15675 | -1.25939 | 39179 ft | 507 kts | 197° |
| 2026-04-25 16:46 | 51.12320 | -1.27426 | 38782 ft | 492 kts | 198° |
| 2026-04-25 16:46 | 51.10165 | -1.28402 | 38322 ft | 480 kts | 198° |
| 2026-04-25 16:47 | 51.05944 | -1.30169 | 37514 ft | 458 kts | 196° |
| 2026-04-25 16:47 | 51.02882 | -1.31396 | 36930 ft | 451 kts | 197° |
| 2026-04-25 16:47 | 50.99853 | -1.32672 | 36343 ft | 451 kts | 197° |
| 2026-04-25 16:47 | 50.96823 | -1.33987 | 35748 ft | 452 kts | 198° |
| 2026-04-25 16:48 | 50.93888 | -1.35737 | 35147 ft | 450 kts | 207° |
| 2026-04-25 16:48 | 50.91094 | -1.37974 | 34562 ft | 450 kts | 210° |
| 2026-04-25 16:48 | 50.88324 | -1.40301 | 34008 ft | 451 kts | 210° |
| 2026-04-25 16:48 | 50.85513 | -1.42559 | 33391 ft | 456 kts | 209° |
| 2026-04-25 16:49 | 50.82659 | -1.44766 | 32793 ft | 458 kts | 209° |
| 2026-04-25 16:49 | 50.79802 | -1.47017 | 32184 ft | 459 kts | 210° |
| 2026-04-25 16:49 | 50.76952 | -1.49320 | 31579 ft | 461 kts | 210° |
| 2026-04-25 16:49 | 50.74083 | -1.51617 | 30982 ft | 464 kts | 210° |
| 2026-04-25 16:50 | 50.71191 | -1.53887 | 30368 ft | 462 kts | 210° |
| 2026-04-25 16:50 | 50.68361 | -1.56107 | 29729 ft | 458 kts | 210° |
| 2026-04-25 16:50 | 50.65528 | -1.58355 | 29131 ft | 454 kts | 210° |
| 2026-04-25 16:50 | 50.62718 | -1.60586 | 28531 ft | 451 kts | 210° |
| 2026-04-25 16:51 | 50.59918 | -1.62789 | 27940 ft | 448 kts | 210° |
| 2026-04-25 16:51 | 50.57139 | -1.64968 | 27357 ft | 445 kts | 210° |
| 2026-04-25 16:51 | 50.54381 | -1.67136 | 26775 ft | 441 kts | 210° |
| 2026-04-25 16:51 | 50.52530 | -1.68593 | 26392 ft | 439 kts | 210° |
| 2026-04-25 16:52 | 50.48924 | -1.71421 | 25643 ft | 435 kts | 210° |
| 2026-04-25 16:52 | 50.46221 | -1.73534 | 25075 ft | 432 kts | 210° |
| 2026-04-25 16:52 | 50.43539 | -1.75632 | 24514 ft | 430 kts | 210° |
| 2026-04-25 16:52 | 50.40872 | -1.77715 | 23956 ft | 427 kts | 209° |
| 2026-04-25 16:53 | 50.35590 | -1.81831 | 22808 ft | 420 kts | 209° |
| 2026-04-25 16:53 | 50.32983 | -1.83860 | 22262 ft | 416 kts | 209° |
| 2026-04-25 16:53 | 50.30402 | -1.85865 | 21725 ft | 412 kts | 208° |
| 2026-04-25 16:54 | 50.27845 | -1.87850 | 21189 ft | 408 kts | 208° |
| 2026-04-25 16:54 | 50.25312 | -1.89813 | 20661 ft | 405 kts | 208° |
| 2026-04-25 16:54 | 50.22801 | -1.91757 | 20134 ft | 401 kts | 208° |
| 2026-04-25 16:54 | 50.20314 | -1.93680 | 19615 ft | 397 kts | 208° |
| 2026-04-25 16:55 | 50.17846 | -1.95586 | 19097 ft | 394 kts | 208° |
| 2026-04-25 16:55 | 50.15396 | -1.97477 | 18587 ft | 391 kts | 208° |
| 2026-04-25 16:55 | 50.12969 | -1.99347 | 18041 ft | 388 kts | 208° |
| 2026-04-25 16:55 | 50.10560 | -2.01201 | 17534 ft | 385 kts | 208° |
| 2026-04-25 16:56 | 50.08168 | -2.03040 | 17025 ft | 382 kts | 208° |
| 2026-04-25 16:56 | 50.05795 | -2.04863 | 16537 ft | 379 kts | 208° |
| 2026-04-25 16:56 | 50.03438 | -2.06671 | 16041 ft | 376 kts | 208° |
| 2026-04-25 16:56 | 50.01099 | -2.08464 | 15552 ft | 374 kts | 208° |
| 2026-04-25 16:57 | 49.98802 | -2.10309 | 15047 ft | 370 kts | 212° |
| 2026-04-25 16:57 | 49.97493 | -2.11969 | 14699 ft | 365 kts | 227° |
| 2026-04-25 16:57 | 49.95246 | -2.15900 | 14116 ft | 362 kts | 230° |
| 2026-04-25 16:57 | 49.93582 | -2.18835 | 13614 ft | 361 kts | 230° |
| 2026-04-25 16:58 | 49.91919 | -2.21728 | 13133 ft | 359 kts | 229° |
| 2026-04-25 16:58 | 49.90261 | -2.24611 | 12666 ft | 356 kts | 229° |
| 2026-04-25 16:58 | 49.88617 | -2.27483 | 12199 ft | 354 kts | 230° |
| 2026-04-25 16:58 | 49.86990 | -2.30324 | 11731 ft | 351 kts | 229° |
| 2026-04-25 16:59 | 49.85384 | -2.33118 | 11285 ft | 339 kts | 229° |
| 2026-04-25 16:59 | 49.83867 | -2.35751 | 10878 ft | 317 kts | 229° |
| 2026-04-25 16:59 | 49.82440 | -2.38229 | 10503 ft | 300 kts | 229° |
| 2026-04-25 16:59 | 49.81071 | -2.40608 | 10135 ft | 293 kts | 229° |
| 2026-04-25 17:00 | 49.79722 | -2.42947 | 9740 ft | 289 kts | 228° |
| 2026-04-25 17:00 | 49.78386 | -2.45260 | 9367 ft | 287 kts | 229° |
| 2026-04-25 17:00 | 49.77060 | -2.47554 | 8992 ft | 286 kts | 228° |
| 2026-04-25 17:00 | 49.75739 | -2.49839 | 8620 ft | 284 kts | 229° |
| 2026-04-25 17:01 | 49.74424 | -2.52110 | 8249 ft | 283 kts | 229° |
| 2026-04-25 17:01 | 49.73114 | -2.54372 | 7877 ft | 282 kts | 229° |
| 2026-04-25 17:01 | 49.71811 | -2.56619 | 7510 ft | 280 kts | 229° |
| 2026-04-25 17:01 | 49.70349 | -2.58547 | 7076 ft | 278 kts | 208° |
| 2026-04-25 17:02 | 49.68496 | -2.59272 | 6739 ft | 276 kts | 185° |
| 2026-04-25 17:02 | 49.66575 | -2.59370 | 6415 ft | 276 kts | 181° |
| 2026-04-25 17:02 | 49.64658 | -2.59417 | 6050 ft | 275 kts | 182° |
| 2026-04-25 17:02 | 49.62746 | -2.59502 | 5681 ft | 275 kts | 183° |
| 2026-04-25 17:03 | 49.60841 | -2.59602 | 5315 ft | 272 kts | 183° |
| 2026-04-25 17:03 | 49.58974 | -2.59689 | 4952 ft | 272 kts | 183° |
| 2026-04-25 17:03 | 49.57085 | -2.59772 | 4590 ft | 270 kts | 182° |
| 2026-04-25 17:03 | 49.55221 | -2.59856 | 4234 ft | 267 kts | 182° |
| 2026-04-25 17:04 | 49.53371 | -2.59941 | 3885 ft | 266 kts | 182° |
| 2026-04-25 17:04 | 49.51534 | -2.60025 | 3536 ft | 263 kts | 182° |
| 2026-04-25 17:04 | 49.49709 | -2.60108 | 3184 ft | 261 kts | 182° |
| 2026-04-25 17:04 | 49.47885 | -2.60191 | 2834 ft | 262 kts | 182° |
| 2026-04-25 17:05 | 49.46660 | -2.60280 | 2598 ft | 259 kts | 185° |
| 2026-04-25 17:05 | 49.43652 | -2.64204 | 2153 ft | 260 kts | 253° |
| 2026-04-25 17:05 | 49.43444 | -2.66958 | 2205 ft | 260 kts | 266° |
| 2026-04-25 17:06 | 49.43353 | -2.69725 | 2198 ft | 258 kts | 266° |
| 2026-04-25 17:06 | 49.43251 | -2.72483 | 2194 ft | 259 kts | 266° |
| 2026-04-25 17:06 | 49.43141 | -2.75242 | 2197 ft | 259 kts | 265° |
| 2026-04-25 17:06 | 49.43032 | -2.78004 | 2196 ft | 259 kts | 265° |
| 2026-04-25 17:07 | 49.42970 | -2.80768 | 2168 ft | 260 kts | 272° |
| 2026-04-25 17:07 | 49.43588 | -2.83346 | 2128 ft | 262 kts | 304° |
| 2026-04-25 17:07 | 49.44797 | -2.85430 | 2189 ft | 262 kts | 314° |
| 2026-04-25 17:07 | 49.46082 | -2.87418 | 2192 ft | 262 kts | 314° |
| 2026-04-25 17:08 | 49.47355 | -2.89424 | 2186 ft | 262 kts | 313° |
| 2026-04-25 17:08 | 49.48488 | -2.91592 | 2131 ft | 263 kts | 297° |
| 2026-04-25 17:08 | 49.48828 | -2.94292 | 2152 ft | 259 kts | 267° |
| 2026-04-25 17:08 | 49.48292 | -2.96896 | 2149 ft | 260 kts | 238° |
| 2026-04-25 17:09 | 49.47005 | -2.98776 | 2164 ft | 258 kts | 209° |
| 2026-04-25 17:09 | 49.45297 | -2.99465 | 2166 ft | 256 kts | 181° |
| 2026-04-25 17:09 | 49.43581 | -2.98806 | 2164 ft | 257 kts | 152° |
| 2026-04-25 17:09 | 49.42309 | -2.96929 | 2145 ft | 257 kts | 120° |
| 2026-04-25 17:10 | 49.41993 | -2.94308 | 2146 ft | 258 kts | 84° |
| 2026-04-25 17:10 | 49.42461 | -2.91643 | 2212 ft | 259 kts | 75° |
| 2026-04-25 17:10 | 49.42737 | -2.88928 | 2199 ft | 251 kts | 86° |
| 2026-04-25 17:10 | 49.42773 | -2.86433 | 2177 ft | 221 kts | 89° |
| 2026-04-25 17:11 | 49.42825 | -2.84084 | 2172 ft | 219 kts | 88° |
| 2026-04-25 17:11 | 49.42889 | -2.81752 | 2173 ft | 218 kts | 88° |
| 2026-04-25 17:11 | 49.42954 | -2.79425 | 2175 ft | 218 kts | 88° |
| 2026-04-25 17:11 | 49.43018 | -2.77104 | 2175 ft | 217 kts | 88° |
| 2026-04-25 17:12 | 49.43083 | -2.74782 | 2074 ft | 219 kts | 88° |
| 2026-04-25 17:12 | 49.43146 | -2.72485 | 1774 ft | 208 kts | 88° |
| 2026-04-25 17:12 | 49.43205 | -2.70424 | 1485 ft | 177 kts | 88° |
| 2026-04-25 17:12 | 49.43254 | -2.68656 | 1264 ft | 151 kts | 88° |
| 2026-04-25 17:13 | 49.43295 | -2.67180 | 1091 ft | 131 kts | 86° |
| 2026-04-25 17:13 | 49.43310 | -2.66728 | 1023 ft | 130 kts | 86° |
| 2026-04-25 17:13 | 49.43373 | -2.64485 | 668 ft | 123 kts | 84° |
| 2026-04-25 17:13 | 49.43425 | -2.63175 | 535 ft | 121 kts | 86° |
| 2026-04-25 17:14 | 49.43451 | -2.61908 | 392 ft | 115 kts | 88° |
| 2026-04-25 17:14 | 49.43484 | -2.60750 | 307 ft | 96 kts | 88° |
| 2026-04-25 17:14 | 49.43499 | -2.60152 | 310 ft | 20 kts | 88° |
| 2026-04-25 17:14 | 49.43504 | -2.59952 | 316 ft | 16 kts | 87° |
| 2026-04-25 17:15 | 49.43452 | -2.59861 | 320 ft | 11 kts | 178° |
| 2026-04-25 17:15 | 49.43420 | -2.59859 | 321 ft | 0 kts | 175° |
| 2026-04-25 17:15 | 49.43420 | -2.59858 | 322 ft | 1 kts | 175° |
| 2026-04-25 17:16 | 49.43397 | -2.59857 | 322 ft | 5 kts | 178° |
| 2026-04-25 17:16 | 49.43350 | -2.59877 | 317 ft | 11 kts | 230° |
| 2026-04-25 17:16 | 49.43302 | -2.59927 | 316 ft | 3 kts | 177° |
| 2026-04-25 17:16 | 49.43292 | -2.59913 | 315 ft | 1 kts | 110° |
| 2026-04-25 17:17 | 49.43292 | -2.59892 | 318 ft | 2 kts | 89° |
| 2026-04-25 17:17 | 49.43293 | -2.59867 | 319 ft | 1 kts | 85° |
| 2026-04-25 17:17 | 49.43293 | -2.59861 | 320 ft | 1 kts | 84° |
| 2026-04-25 17:17 | 49.43294 | -2.59852 | 320 ft | 1 kts | 84° |
| 2026-04-25 17:18 | 49.43294 | -2.59851 | 320 ft | 0 kts | 85° |